createdAt,value
2023-06-01T00:00:57.405Z,11.30
2023-06-01T00:02:29.421Z,13.60
2023-06-01T00:04:01.535Z,12.60
2023-06-01T00:05:33.486Z,10.60
2023-06-01T00:07:06.474Z,10.60
2023-06-01T00:08:38.314Z,9.50
2023-06-01T00:10:10.741Z,13.00
2023-06-01T00:11:42.629Z,14.20
2023-06-01T00:13:14.469Z,11.80
2023-06-01T00:14:46.346Z,13.60
2023-06-01T00:16:18.792Z,11.10
2023-06-01T00:17:52.594Z,13.60
2023-06-01T00:19:27.320Z,15.30
2023-06-01T00:21:01.650Z,10.80
2023-06-01T00:22:35.492Z,11.10
2023-06-01T00:24:08.426Z,10.60
2023-06-01T00:25:40.469Z,11.30
2023-06-01T00:27:12.273Z,12.90
2023-06-01T00:28:44.147Z,13.20
2023-06-01T00:30:16.020Z,11.40
2023-06-01T00:31:48.021Z,12.70
2023-06-01T00:33:21.416Z,12.50
2023-06-01T00:34:54.957Z,14.40
2023-06-01T00:36:26.743Z,12.40
2023-06-01T00:37:58.530Z,14.90
2023-06-01T00:39:30.688Z,17.10
2023-06-01T00:41:02.809Z,13.50
2023-06-01T00:42:34.805Z,13.70
2023-06-01T00:44:06.664Z,12.20
2023-06-01T00:45:38.831Z,12.20
2023-06-01T00:47:10.877Z,15.40
2023-06-01T00:48:42.806Z,12.00
2023-06-01T00:50:14.950Z,13.90
2023-06-01T00:51:47.148Z,17.20
2023-06-01T00:53:21.146Z,13.60
2023-06-01T00:54:53.240Z,12.30
2023-06-01T00:56:25.056Z,16.00
2023-06-01T00:57:56.917Z,12.50
2023-06-01T00:59:28.821Z,13.00
2023-06-01T01:01:02.754Z,15.70
2023-06-01T01:02:38.311Z,13.60
2023-06-01T01:04:11.763Z,18.50
2023-06-01T01:05:43.970Z,15.10
2023-06-01T01:07:48.957Z,15.40
2023-06-01T01:09:50.490Z,13.90
2023-06-01T01:11:30.427Z,14.60
2023-06-01T01:13:13.175Z,19.60
2023-06-01T01:14:59.286Z,16.80
2023-06-01T01:16:54.480Z,16.90
2023-06-01T01:18:36.910Z,14.90
2023-06-01T01:20:16.353Z,16.70
2023-06-01T01:22:27.755Z,17.30
2023-06-01T01:24:49.514Z,15.30
2023-06-01T01:26:46.123Z,17.50
2023-06-01T01:28:50.993Z,15.60
2023-06-01T01:30:29.448Z,18.60
2023-06-01T01:32:05.193Z,15.00
2023-06-01T01:33:39.298Z,15.90
2023-06-01T01:35:13.052Z,14.00
2023-06-01T01:36:45.248Z,17.00
2023-06-01T01:38:17.201Z,15.30
2023-06-01T01:39:49.061Z,20.70
2023-06-01T01:41:23.159Z,16.00
2023-06-01T01:42:56.238Z,15.80
2023-06-01T01:44:30.406Z,18.70
2023-06-01T01:46:27.296Z,16.00
2023-06-01T01:48:33.109Z,16.80
2023-06-01T01:50:11.349Z,17.90
2023-06-01T01:52:01.379Z,15.30
2023-06-01T01:53:37.059Z,20.00
2023-06-01T01:55:10.721Z,19.30
2023-06-01T01:56:44.724Z,17.50
2023-06-01T01:58:17.632Z,19.30
2023-06-01T01:59:51.652Z,17.40
2023-06-01T02:01:24.716Z,17.50
2023-06-01T02:02:56.614Z,21.40
2023-06-01T02:04:28.451Z,22.30
2023-06-01T02:06:00.207Z,19.50
2023-06-01T02:07:34.858Z,19.20
2023-06-01T02:09:08.300Z,18.40
2023-06-01T02:10:41.934Z,18.60
2023-06-01T02:12:13.934Z,20.10
2023-06-01T02:13:45.727Z,21.70
2023-06-01T02:15:17.500Z,18.70
2023-06-01T02:16:49.432Z,20.80
2023-06-01T02:18:21.511Z,20.90
2023-06-01T02:19:53.371Z,16.80
2023-06-01T02:21:27.148Z,19.70
2023-06-01T02:22:58.982Z,20.90
2023-06-01T02:24:31.284Z,20.50
2023-06-01T02:26:03.083Z,21.30
2023-06-01T02:27:34.844Z,19.70
2023-06-01T02:29:07.819Z,21.10
2023-06-01T02:30:39.629Z,22.20
2023-06-01T02:32:11.589Z,24.00
2023-06-01T02:33:43.595Z,23.70
2023-06-01T02:35:16.099Z,22.60
2023-06-01T02:36:50.562Z,21.70
2023-06-01T02:38:22.687Z,19.10
2023-06-01T02:39:54.496Z,23.60
2023-06-01T02:41:26.821Z,20.50
2023-06-01T02:42:58.556Z,19.20
2023-06-01T02:44:30.504Z,21.50
2023-06-01T02:46:02.912Z,21.80
2023-06-01T02:47:35.062Z,23.80
2023-06-01T02:49:07.426Z,21.70
2023-06-01T02:50:39.174Z,20.40
2023-06-01T02:52:11.000Z,25.40
2023-06-01T02:53:43.633Z,21.20
2023-06-01T02:55:16.761Z,22.30
2023-06-01T02:57:11.574Z,21.90
2023-06-01T02:58:49.552Z,24.10
2023-06-01T03:00:29.141Z,23.30
2023-06-01T03:02:01.016Z,24.20
2023-06-01T03:03:33.033Z,24.20
2023-06-01T03:05:07.228Z,23.80
2023-06-01T03:06:40.794Z,22.20
2023-06-01T03:08:28.025Z,21.30
2023-06-01T03:09:59.770Z,18.30
2023-06-01T03:11:50.110Z,22.10
2023-06-01T03:13:22.171Z,20.70
2023-06-01T03:14:53.960Z,24.40
2023-06-01T03:16:26.925Z,21.90
2023-06-01T03:18:09.807Z,18.70
2023-06-01T03:19:41.779Z,20.90
2023-06-01T03:21:30.656Z,18.00
2023-06-01T03:23:02.741Z,18.00
2023-06-01T03:24:35.381Z,19.80
2023-06-01T03:26:08.155Z,20.20
2023-06-01T03:27:41.952Z,17.70
2023-06-01T03:29:14.053Z,18.30
2023-06-01T03:30:47.792Z,19.50
2023-06-01T03:32:19.574Z,18.90
2023-06-01T03:33:51.738Z,18.40
2023-06-01T03:35:23.626Z,17.60
2023-06-01T03:36:55.443Z,17.40
2023-06-01T03:38:27.246Z,15.30
2023-06-01T03:39:59.201Z,16.70
2023-06-01T03:41:33.202Z,20.20
2023-06-01T03:43:05.019Z,21.00
2023-06-01T03:44:37.805Z,18.80
2023-06-01T03:46:10.139Z,15.70
2023-06-01T03:47:42.564Z,18.70
2023-06-01T03:49:14.483Z,18.40
2023-06-01T03:50:46.901Z,17.00
2023-06-01T03:52:19.353Z,18.00
2023-06-01T03:53:51.314Z,17.60
2023-06-01T03:55:23.760Z,16.00
2023-06-01T03:57:09.082Z,18.30
2023-06-01T03:58:40.825Z,21.30
2023-06-01T04:00:19.417Z,16.20
2023-06-01T04:01:57.227Z,16.20
2023-06-01T04:03:29.251Z,15.70
2023-06-01T04:05:01.795Z,14.90
2023-06-01T04:06:36.588Z,17.40
2023-06-01T04:08:10.043Z,18.90
2023-06-01T04:09:42.398Z,18.80
2023-06-01T04:11:14.976Z,15.70
2023-06-01T04:12:50.243Z,19.50
2023-06-01T04:14:23.028Z,18.10
2023-06-01T04:15:54.970Z,17.90
2023-06-01T04:17:26.985Z,19.70
2023-06-01T04:18:58.952Z,16.90
2023-06-01T04:20:35.961Z,16.80
2023-06-01T04:22:07.902Z,17.50
2023-06-01T04:23:39.889Z,18.20
2023-06-01T04:25:18.044Z,16.90
2023-06-01T04:26:51.557Z,17.50
2023-06-01T04:28:25.526Z,18.60
2023-06-01T04:29:59.974Z,15.60
2023-06-01T04:31:34.297Z,17.80
2023-06-01T04:33:06.814Z,15.80
2023-06-01T04:34:40.298Z,13.80
2023-06-01T04:36:13.897Z,20.60
2023-06-01T04:37:47.455Z,17.00
2023-06-01T04:39:19.483Z,19.80
2023-06-01T04:40:54.680Z,20.20
2023-06-01T04:42:27.033Z,18.10
2023-06-01T04:43:59.356Z,21.30
2023-06-01T04:45:39.357Z,17.60
2023-06-01T04:47:11.231Z,17.20
2023-06-01T04:48:45.877Z,16.50
2023-06-01T04:50:18.196Z,19.60
2023-06-01T04:51:52.810Z,16.70
2023-06-01T04:53:24.621Z,19.30
2023-06-01T04:54:56.592Z,17.70
2023-06-01T04:56:28.410Z,17.40
2023-06-01T04:58:00.322Z,17.50
2023-06-01T04:59:32.163Z,17.40
2023-06-01T05:01:04.001Z,16.50
2023-06-01T05:02:36.059Z,17.80
2023-06-01T05:04:07.868Z,18.20
2023-06-01T05:05:41.319Z,14.60
2023-06-01T05:07:13.473Z,14.30
2023-06-01T05:08:45.241Z,16.40
2023-06-01T05:10:17.762Z,18.90
2023-06-01T05:11:50.716Z,14.80
2023-06-01T05:13:22.677Z,16.50
2023-06-01T05:14:54.558Z,17.40
2023-06-01T05:16:26.588Z,14.00
2023-06-01T05:18:22.171Z,15.20
2023-06-01T05:19:54.285Z,14.90
2023-06-01T05:21:26.290Z,15.00
2023-06-01T05:22:58.510Z,16.20
2023-06-01T05:24:30.711Z,17.10
2023-06-01T05:26:06.991Z,17.30
2023-06-01T05:27:40.177Z,16.70
2023-06-01T05:29:12.358Z,15.40
2023-06-01T05:30:44.324Z,16.10
2023-06-01T05:32:16.550Z,18.30
2023-06-01T05:33:49.813Z,15.80
2023-06-01T05:35:22.016Z,16.30
2023-06-01T05:36:54.785Z,16.30
2023-06-01T05:38:26.757Z,15.40
2023-06-01T05:39:58.641Z,13.90
2023-06-01T05:41:30.603Z,11.70
2023-06-01T05:43:03.180Z,12.90
2023-06-01T05:44:35.089Z,13.40
2023-06-01T05:46:07.844Z,14.10
2023-06-01T05:47:39.927Z,12.60
2023-06-01T05:49:11.858Z,14.10
2023-06-01T05:50:43.801Z,11.50
2023-06-01T05:52:15.646Z,14.50
2023-06-01T05:53:48.239Z,14.60
2023-06-01T05:55:20.653Z,11.30
2023-06-01T05:56:52.805Z,13.60
2023-06-01T05:58:24.977Z,14.80
2023-06-01T05:59:56.758Z,12.00
2023-06-01T06:01:28.528Z,10.30
2023-06-01T06:03:00.357Z,18.00
2023-06-01T06:04:32.398Z,11.90
2023-06-01T06:06:04.583Z,14.60
2023-06-01T06:07:36.996Z,14.80
2023-06-01T06:09:08.788Z,18.60
2023-06-01T06:10:40.668Z,12.70
2023-06-01T06:12:12.564Z,13.60
2023-06-01T06:13:44.350Z,14.80
2023-06-01T06:15:16.240Z,11.90
2023-06-01T06:16:48.048Z,13.60
2023-06-01T06:18:20.572Z,15.80
2023-06-01T06:19:52.620Z,13.50
2023-06-01T06:21:24.611Z,15.10
2023-06-01T06:22:56.591Z,13.30
2023-06-01T06:24:28.354Z,14.40
2023-06-01T06:26:00.222Z,13.60
2023-06-01T06:27:32.014Z,15.00
2023-06-01T06:29:03.797Z,13.70
2023-06-01T06:30:35.669Z,15.40
2023-06-01T06:32:08.052Z,14.30
2023-06-01T06:33:39.859Z,13.60
2023-06-01T06:35:14.639Z,14.50
2023-06-01T06:36:47.663Z,13.40
2023-06-01T06:38:19.510Z,16.50
2023-06-01T06:39:51.501Z,13.80
2023-06-01T06:41:24.317Z,13.30
2023-06-01T06:42:56.064Z,12.80
2023-06-01T06:44:27.951Z,15.60
2023-06-01T06:45:59.773Z,14.80
2023-06-01T06:47:32.244Z,12.30
2023-06-01T06:49:04.064Z,15.00
2023-06-01T06:50:36.660Z,11.50
2023-06-01T06:52:10.239Z,13.20
2023-06-01T06:53:42.011Z,13.30
2023-06-01T06:55:13.721Z,11.40
2023-06-01T06:56:45.950Z,12.70
2023-06-01T06:58:17.725Z,12.30
2023-06-01T06:59:49.522Z,13.50
2023-06-01T07:01:21.721Z,13.70
2023-06-01T07:02:54.972Z,10.70
2023-06-01T07:04:30.036Z,13.10
2023-06-01T07:06:02.173Z,13.30
2023-06-01T07:07:33.941Z,15.00
2023-06-01T07:09:07.150Z,15.20
2023-06-01T07:10:39.000Z,13.10
2023-06-01T07:12:10.975Z,11.10
2023-06-01T07:13:42.759Z,12.50
2023-06-01T07:15:14.672Z,12.30
2023-06-01T07:16:47.459Z,13.20
2023-06-01T07:18:19.467Z,12.20
2023-06-01T07:19:51.312Z,16.20
2023-06-01T07:21:23.263Z,12.90
2023-06-01T07:22:55.197Z,13.70
2023-06-01T07:24:27.375Z,15.20
2023-06-01T07:25:59.457Z,14.80
2023-06-01T07:27:31.218Z,12.00
2023-06-01T07:29:03.153Z,13.70
2023-06-01T07:30:36.052Z,13.50
2023-06-01T07:32:08.236Z,11.70
2023-06-01T07:33:40.231Z,14.50
2023-06-01T07:35:12.040Z,12.60
2023-06-01T07:36:46.446Z,12.80
2023-06-01T07:38:18.240Z,11.90
2023-06-01T07:39:50.087Z,13.00
2023-06-01T07:41:22.261Z,11.70
2023-06-01T07:42:54.022Z,11.60
2023-06-01T07:44:25.891Z,11.80
2023-06-01T07:45:58.561Z,13.10
2023-06-01T07:47:31.138Z,10.70
2023-06-01T07:49:04.261Z,12.00
2023-06-01T07:50:37.492Z,10.80
2023-06-01T07:52:09.876Z,10.70
2023-06-01T07:53:41.685Z,12.00
2023-06-01T07:55:13.506Z,13.50
2023-06-01T07:56:45.423Z,13.30
2023-06-01T07:58:17.206Z,14.60
2023-06-01T07:59:49.001Z,12.40
2023-06-01T08:01:20.783Z,11.80
2023-06-01T08:02:52.765Z,12.60
2023-06-01T08:04:25.362Z,13.90
2023-06-01T08:06:00.804Z,14.40
2023-06-01T08:07:32.843Z,12.50
2023-06-01T08:09:05.164Z,14.80
2023-06-01T08:10:37.174Z,11.20
2023-06-01T08:12:09.519Z,14.60
2023-06-01T08:13:42.289Z,13.70
2023-06-01T08:15:14.084Z,15.80
2023-06-01T08:16:46.579Z,11.80
2023-06-01T08:18:20.809Z,10.60
2023-06-01T08:19:53.786Z,12.70
2023-06-01T08:21:27.565Z,11.80
2023-06-01T08:22:59.425Z,12.30
2023-06-01T08:24:33.387Z,13.50
2023-06-01T08:26:05.834Z,14.40
2023-06-01T08:27:37.697Z,14.30
2023-06-01T08:29:09.540Z,13.10
2023-06-01T08:30:41.560Z,11.70
2023-06-01T08:32:14.349Z,15.10
2023-06-01T08:33:46.773Z,15.30
2023-06-01T08:35:20.426Z,17.60
2023-06-01T08:36:53.400Z,15.40
2023-06-01T08:38:33.307Z,13.30
2023-06-01T08:40:08.714Z,14.80
2023-06-01T08:41:59.587Z,15.10
2023-06-01T08:43:34.770Z,12.10
2023-06-01T08:45:07.672Z,14.90
2023-06-01T08:46:43.316Z,14.30
2023-06-01T08:48:19.801Z,16.70
2023-06-01T08:49:53.859Z,14.20
2023-06-01T08:51:27.003Z,14.20
2023-06-01T08:53:00.997Z,12.10
2023-06-01T08:54:34.057Z,13.00
2023-06-01T08:56:06.498Z,14.30
2023-06-01T08:57:42.915Z,13.50
2023-06-01T08:59:14.871Z,16.20
2023-06-01T09:00:55.004Z,15.30
2023-06-01T09:02:28.751Z,14.40
2023-06-01T09:04:01.084Z,18.90
2023-06-01T09:05:32.931Z,15.20
2023-06-01T09:07:05.633Z,13.50
2023-06-01T09:08:40.004Z,14.40
2023-06-01T09:10:12.725Z,13.00
2023-06-01T09:11:45.846Z,12.90
2023-06-01T09:13:36.874Z,18.20
2023-06-01T09:15:12.838Z,16.00
2023-06-01T09:16:44.708Z,15.90
2023-06-01T09:18:16.547Z,14.60
2023-06-01T09:19:48.990Z,17.70
2023-06-01T09:21:21.645Z,16.80
2023-06-01T09:22:54.798Z,17.00
2023-06-01T09:24:27.751Z,16.80
2023-06-01T09:26:10.779Z,21.60
2023-06-01T09:27:50.287Z,18.60
2023-06-01T09:29:22.158Z,16.30
2023-06-01T09:30:54.211Z,17.90
2023-06-01T09:32:26.493Z,16.80
2023-06-01T09:34:02.653Z,12.80
2023-06-01T09:35:48.555Z,17.90
2023-06-01T09:37:20.453Z,17.70
2023-06-01T09:39:02.346Z,16.60
2023-06-01T09:40:35.986Z,13.40
2023-06-01T09:42:08.598Z,16.90
2023-06-01T09:43:44.592Z,17.20
2023-06-01T09:45:26.155Z,16.40
2023-06-01T09:47:14.089Z,14.40
2023-06-01T09:48:46.214Z,19.60
2023-06-01T09:50:39.492Z,20.30
2023-06-01T09:52:18.157Z,17.90
2023-06-01T09:53:50.069Z,20.30
2023-06-01T09:55:22.009Z,16.80
2023-06-01T09:57:09.251Z,18.50
2023-06-01T09:58:43.032Z,20.90
2023-06-01T10:00:25.607Z,18.70
2023-06-01T10:01:59.728Z,18.50
2023-06-01T10:03:32.195Z,18.80
2023-06-01T10:05:04.420Z,21.10
2023-06-01T10:06:41.529Z,18.50
2023-06-01T10:08:16.042Z,19.40
2023-06-01T10:09:56.195Z,20.90
2023-06-01T10:11:30.208Z,21.60
2023-06-01T10:13:02.094Z,16.20
2023-06-01T10:14:34.743Z,19.30
2023-06-01T10:16:09.156Z,18.30
2023-06-01T10:17:43.732Z,21.00
2023-06-01T10:19:15.527Z,20.10
2023-06-01T10:20:47.960Z,21.50
2023-06-01T10:22:20.088Z,21.00
2023-06-01T10:23:52.083Z,22.00
2023-06-01T10:25:26.075Z,17.10
2023-06-01T10:27:27.045Z,19.20
2023-06-01T10:28:59.771Z,22.00
2023-06-01T10:30:32.037Z,22.40
2023-06-01T10:32:04.210Z,22.40
2023-06-01T10:33:54.235Z,22.90
2023-06-01T10:35:28.729Z,21.10
2023-06-01T10:37:01.481Z,19.90
2023-06-01T10:38:33.596Z,20.50
2023-06-01T10:40:17.924Z,20.50
2023-06-01T10:41:49.903Z,20.70
2023-06-01T10:43:36.923Z,22.40
2023-06-01T10:45:09.672Z,22.80
2023-06-01T10:46:45.520Z,20.00
2023-06-01T10:48:17.858Z,20.00
2023-06-01T10:49:49.533Z,20.40
2023-06-01T10:51:25.013Z,23.90
2023-06-01T10:53:17.757Z,24.60
2023-06-01T10:54:50.801Z,21.50
2023-06-01T10:56:28.276Z,22.70
2023-06-01T10:58:27.096Z,22.50
2023-06-01T11:00:18.984Z,21.60
2023-06-01T11:01:51.231Z,21.10
2023-06-01T11:03:47.345Z,20.80
2023-06-01T11:05:36.498Z,24.30
2023-06-01T11:07:39.448Z,19.40
2023-06-01T11:09:13.389Z,20.30
2023-06-01T11:11:07.215Z,18.70
2023-06-01T11:13:15.450Z,18.70
2023-06-01T11:15:13.471Z,17.90
2023-06-01T11:16:46.228Z,17.20
2023-06-01T11:19:01.738Z,17.10
2023-06-01T11:20:40.755Z,18.40
2023-06-01T11:22:13.352Z,18.70
2023-06-01T11:23:46.564Z,17.10
2023-06-01T11:25:19.373Z,17.10
2023-06-01T11:26:51.919Z,19.40
2023-06-01T11:28:23.658Z,16.80
2023-06-01T11:29:56.500Z,15.60
2023-06-01T11:31:29.478Z,12.30
2023-06-01T11:33:04.075Z,14.60
2023-06-01T11:34:40.258Z,15.70
2023-06-01T11:36:15.981Z,15.60
2023-06-01T11:37:48.618Z,16.30
2023-06-01T11:39:26.383Z,13.00
2023-06-01T11:41:04.448Z,15.30
2023-06-01T11:42:37.587Z,14.50
2023-06-01T11:44:09.547Z,14.10
2023-06-01T11:45:42.694Z,15.70
2023-06-01T11:47:14.823Z,16.30
2023-06-01T11:49:06.932Z,14.20
2023-06-01T11:50:47.704Z,15.60
2023-06-01T11:52:21.266Z,15.00
2023-06-01T11:53:55.217Z,14.30
2023-06-01T11:55:27.929Z,15.50
2023-06-01T11:56:59.839Z,18.30
2023-06-01T11:58:31.872Z,13.90
2023-06-01T12:00:05.164Z,12.10
2023-06-01T12:01:44.116Z,15.80
2023-06-01T12:03:17.624Z,15.00
2023-06-01T12:05:00.050Z,14.50
2023-06-01T12:06:32.319Z,13.30
2023-06-01T12:08:04.761Z,14.80
2023-06-01T12:09:38.123Z,14.80
2023-06-01T12:11:10.695Z,11.60
2023-06-01T12:12:46.889Z,11.30
2023-06-01T12:14:19.261Z,12.60
2023-06-01T12:15:54.294Z,13.20
2023-06-01T12:17:26.886Z,12.40
2023-06-01T12:18:58.802Z,12.60
2023-06-01T12:20:33.547Z,11.90
2023-06-01T12:22:05.839Z,11.20
2023-06-01T12:23:37.979Z,12.20
2023-06-01T12:25:10.549Z,12.40
2023-06-01T12:26:42.339Z,9.10
2023-06-01T12:28:14.248Z,12.20
2023-06-01T12:29:48.723Z,12.60
2023-06-01T12:31:21.135Z,12.90
2023-06-01T12:32:52.948Z,15.90
2023-06-01T12:34:25.067Z,11.60
2023-06-01T12:35:56.863Z,9.70
2023-06-01T12:37:31.882Z,11.10
2023-06-01T12:39:06.481Z,9.60
2023-06-01T12:40:39.454Z,10.60
2023-06-01T12:42:12.875Z,11.10
2023-06-01T12:43:47.266Z,11.20
2023-06-01T12:45:20.641Z,12.20
2023-06-01T12:47:01.876Z,11.90
2023-06-01T12:48:37.608Z,11.40
2023-06-01T12:50:12.236Z,14.70
2023-06-01T12:51:45.030Z,9.80
2023-06-01T12:53:16.768Z,12.70
2023-06-01T12:54:51.485Z,10.60
2023-06-01T12:56:23.290Z,10.70
2023-06-01T12:57:56.544Z,11.10
2023-06-01T12:59:28.404Z,8.60
2023-06-01T13:01:00.609Z,9.90
2023-06-01T13:02:32.494Z,9.50
2023-06-01T13:04:04.698Z,11.20
2023-06-01T13:05:36.994Z,10.70
2023-06-01T13:07:09.025Z,12.30
2023-06-01T13:08:41.052Z,9.00
2023-06-01T13:10:14.726Z,11.70
2023-06-01T13:11:46.607Z,9.00
2023-06-01T13:13:18.716Z,11.50
2023-06-01T13:14:50.793Z,11.00
2023-06-01T13:16:22.936Z,10.20
2023-06-01T13:17:56.421Z,10.40
2023-06-01T13:19:28.296Z,10.50
2023-06-01T13:21:00.052Z,12.30
2023-06-01T13:22:31.853Z,8.90
2023-06-01T13:24:04.535Z,10.50
2023-06-01T13:25:36.871Z,12.80
2023-06-01T13:27:08.734Z,10.50
2023-06-01T13:28:40.762Z,10.30
2023-06-01T13:30:14.210Z,12.00
2023-06-01T13:31:47.348Z,12.50
2023-06-01T13:33:19.196Z,11.30
2023-06-01T13:34:51.372Z,10.50
2023-06-01T13:36:23.174Z,12.10
2023-06-01T13:37:55.451Z,11.60
2023-06-01T13:39:27.210Z,9.20
2023-06-01T13:40:59.191Z,9.70
2023-06-01T13:42:31.245Z,8.80
2023-06-01T13:44:03.914Z,8.90
2023-06-01T13:45:35.855Z,10.70
2023-06-01T13:47:08.407Z,9.10
2023-06-01T13:48:40.399Z,11.50
2023-06-01T13:50:15.365Z,11.20
2023-06-01T13:51:47.129Z,9.60
2023-06-01T13:53:18.863Z,10.40
2023-06-01T13:54:50.589Z,9.80
2023-06-01T13:56:22.362Z,10.00
2023-06-01T13:57:54.175Z,9.50
2023-06-01T13:59:26.333Z,11.20
2023-06-01T14:00:58.696Z,10.10
2023-06-01T14:02:31.355Z,10.60
2023-06-01T14:04:04.505Z,11.60
2023-06-01T14:05:49.284Z,10.40
2023-06-01T14:07:23.771Z,10.00
2023-06-01T14:08:55.625Z,11.10
2023-06-01T14:10:29.173Z,11.30
2023-06-01T14:12:01.006Z,11.20
2023-06-01T14:13:32.853Z,11.30
2023-06-01T14:15:05.332Z,9.60
2023-06-01T14:16:38.226Z,11.40
2023-06-01T14:18:10.335Z,9.90
2023-06-01T14:19:42.265Z,7.80
2023-06-01T14:21:14.091Z,10.70
2023-06-01T14:22:46.784Z,8.00
2023-06-01T14:24:18.539Z,10.60
2023-06-01T14:25:50.448Z,8.50
2023-06-01T14:27:22.300Z,10.70
2023-06-01T14:28:55.469Z,12.20
2023-06-01T14:30:28.170Z,11.10
2023-06-01T14:32:00.211Z,10.20
2023-06-01T14:33:32.179Z,12.60
2023-06-01T14:35:04.304Z,9.20
2023-06-01T14:36:46.817Z,10.90
2023-06-01T14:38:19.768Z,12.20
2023-06-01T14:39:51.744Z,10.00
2023-06-01T14:41:23.696Z,11.10
2023-06-01T14:42:55.537Z,11.90
2023-06-01T14:44:27.285Z,9.60
2023-06-01T14:45:59.624Z,10.10
2023-06-01T14:47:31.527Z,9.60
2023-06-01T14:49:05.210Z,11.30
2023-06-01T14:50:37.033Z,10.90
2023-06-01T14:52:08.881Z,12.20
2023-06-01T14:53:40.749Z,11.10
2023-06-01T14:55:14.480Z,12.00
2023-06-01T14:56:48.481Z,10.70
2023-06-01T14:58:21.007Z,11.80
2023-06-01T15:00:03.383Z,11.70
2023-06-01T15:01:36.444Z,10.50
2023-06-01T15:03:08.854Z,12.20
2023-06-01T15:04:40.747Z,11.90
2023-06-01T15:06:12.556Z,10.60
2023-06-01T15:07:44.329Z,11.30
2023-06-01T15:09:16.461Z,10.90
2023-06-01T15:10:49.262Z,10.30
2023-06-01T15:12:21.262Z,8.80
2023-06-01T15:13:53.107Z,9.20
2023-06-01T15:15:25.319Z,10.90
2023-06-01T15:16:57.188Z,9.40
2023-06-01T15:18:29.047Z,9.00
2023-06-01T15:20:00.997Z,9.60
2023-06-01T15:21:32.806Z,9.10
2023-06-01T15:23:04.690Z,9.10
2023-06-01T15:24:36.525Z,9.60
2023-06-01T15:26:08.500Z,10.70
2023-06-01T15:27:40.802Z,10.80
2023-06-01T15:29:12.576Z,8.30
2023-06-01T15:30:44.350Z,9.60
2023-06-01T15:32:16.749Z,10.70
2023-06-01T15:33:48.600Z,10.40
2023-06-01T15:35:20.540Z,9.50
2023-06-01T15:36:52.653Z,9.00
2023-06-01T15:38:24.490Z,9.20
2023-06-01T15:39:56.480Z,9.80
2023-06-01T15:41:28.940Z,8.90
2023-06-01T15:43:00.870Z,9.10
2023-06-01T15:44:32.897Z,13.60
2023-06-01T15:46:06.448Z,9.20
2023-06-01T15:47:38.721Z,9.40
2023-06-01T15:49:10.768Z,9.20
2023-06-01T15:50:42.737Z,9.20
2023-06-01T15:52:14.503Z,9.60
2023-06-01T15:53:46.363Z,11.30
2023-06-01T15:55:18.156Z,10.70
2023-06-01T15:56:50.085Z,10.40
2023-06-01T15:58:22.037Z,9.40
2023-06-01T15:59:54.106Z,9.80
2023-06-01T16:03:00.976Z,9.40
2023-06-01T16:04:32.955Z,11.30
2023-06-01T16:06:05.026Z,10.30
2023-06-01T16:07:36.855Z,14.30
2023-06-01T16:09:08.951Z,10.30
2023-06-01T16:10:40.789Z,9.90
2023-06-01T16:12:12.600Z,10.10
2023-06-01T16:13:44.406Z,10.90
2023-06-01T16:15:16.244Z,10.30
2023-06-01T16:16:49.363Z,9.50
2023-06-01T16:18:21.234Z,10.60
2023-06-01T16:19:53.056Z,10.90
2023-06-01T16:21:25.034Z,10.50
2023-06-01T16:22:56.777Z,11.30
2023-06-01T16:24:28.806Z,11.60
2023-06-01T16:26:00.621Z,10.60
2023-06-01T16:27:32.468Z,10.70
2023-06-01T16:29:05.211Z,10.80
2023-06-01T16:30:37.376Z,10.40
2023-06-01T16:32:09.442Z,10.80
2023-06-01T16:33:41.338Z,10.70
2023-06-01T16:35:13.443Z,11.20
2023-06-01T16:36:45.297Z,9.50
2023-06-01T16:38:17.070Z,10.80
2023-06-01T16:39:49.160Z,11.60
2023-06-01T16:41:22.487Z,11.70
2023-06-01T16:42:54.211Z,9.50
2023-06-01T16:44:26.464Z,11.10
2023-06-01T16:45:58.291Z,11.80
2023-06-01T16:47:30.201Z,12.40
2023-06-01T16:49:02.037Z,12.40
2023-06-01T16:50:34.823Z,12.40
2023-06-01T16:52:06.821Z,11.60
2023-06-01T16:53:38.922Z,11.50
2023-06-01T16:55:11.446Z,10.90
2023-06-01T16:56:43.218Z,11.00
2023-06-01T16:58:15.229Z,10.50
2023-06-01T16:59:47.143Z,11.10
2023-06-01T17:01:19.178Z,12.00
2023-06-01T17:02:51.220Z,11.20
2023-06-01T17:04:23.452Z,10.30
2023-06-01T17:05:56.190Z,10.20
2023-06-01T17:07:28.249Z,10.00
2023-06-01T17:09:01.391Z,10.80
2023-06-01T17:10:33.646Z,10.80
2023-06-01T17:12:06.423Z,9.70
2023-06-01T17:13:38.289Z,7.80
2023-06-01T17:15:10.655Z,8.70
2023-06-01T17:16:42.779Z,10.30
2023-06-01T17:18:14.807Z,9.10
2023-06-01T17:19:46.792Z,11.90
2023-06-01T17:21:18.690Z,10.10
2023-06-01T17:22:51.700Z,7.90
2023-06-01T17:24:23.558Z,9.70
2023-06-01T17:25:55.708Z,9.70
2023-06-01T17:27:28.009Z,7.80
2023-06-01T17:28:59.925Z,7.50
2023-06-01T17:30:32.650Z,9.10
2023-06-01T17:32:05.518Z,9.10
2023-06-01T17:33:37.474Z,10.40
2023-06-01T17:35:09.841Z,8.90
2023-06-01T17:36:43.015Z,8.60
2023-06-01T17:38:14.980Z,8.30
2023-06-01T17:39:46.845Z,9.00
2023-06-01T17:41:18.643Z,10.10
2023-06-01T17:42:50.414Z,10.40
2023-06-01T17:44:22.371Z,10.70
2023-06-01T17:45:54.117Z,8.60
2023-06-01T17:47:26.024Z,8.10
2023-06-01T17:48:57.960Z,8.20
2023-06-01T17:50:29.865Z,10.30
2023-06-01T17:52:01.876Z,9.10
2023-06-01T17:53:41.293Z,8.90
2023-06-01T17:55:13.985Z,8.20
2023-06-01T17:56:45.925Z,10.10
2023-06-01T17:58:17.736Z,13.70
2023-06-01T17:59:52.594Z,10.20
2023-06-01T18:01:25.958Z,10.10
2023-06-01T18:02:58.132Z,7.90
2023-06-01T18:04:30.224Z,8.40
2023-06-01T18:06:02.635Z,8.00
2023-06-01T18:07:34.599Z,6.60
2023-06-01T18:09:06.360Z,8.00
2023-06-01T18:10:38.301Z,7.90
2023-06-01T18:12:10.694Z,6.80
2023-06-01T18:13:42.644Z,7.10
2023-06-01T18:15:14.564Z,8.10
2023-06-01T18:16:47.335Z,8.80
2023-06-01T18:18:20.103Z,9.00
2023-06-01T18:19:52.045Z,8.60
2023-06-01T18:21:23.945Z,7.30
2023-06-01T18:22:55.746Z,8.30
2023-06-01T18:24:27.564Z,7.60
2023-06-01T18:25:59.343Z,7.80
2023-06-01T18:27:31.400Z,9.30
2023-06-01T18:29:03.857Z,8.60
2023-06-01T18:30:35.882Z,6.90
2023-06-01T18:32:11.623Z,8.00
2023-06-01T18:33:43.895Z,8.30
2023-06-01T18:35:15.841Z,11.30
2023-06-01T18:36:47.618Z,8.30
2023-06-01T18:38:20.227Z,7.90
2023-06-01T18:39:52.113Z,9.30
2023-06-01T18:41:24.638Z,9.90
2023-06-01T18:42:56.808Z,9.60
2023-06-01T18:44:28.529Z,8.40
2023-06-01T18:46:00.914Z,9.40
2023-06-01T18:47:32.810Z,7.40
2023-06-01T18:49:06.076Z,8.90
2023-06-01T18:50:38.047Z,10.80
2023-06-01T18:52:10.249Z,11.10
2023-06-01T18:53:46.920Z,7.80
2023-06-01T18:55:19.120Z,10.90
2023-06-01T18:56:51.101Z,8.20
2023-06-01T18:58:23.068Z,8.50
2023-06-01T18:59:55.017Z,8.80
2023-06-01T19:01:26.916Z,8.20
2023-06-01T19:02:59.165Z,8.60
2023-06-01T19:04:31.231Z,9.40
2023-06-01T19:06:04.536Z,8.10
2023-06-01T19:07:39.525Z,10.40
2023-06-01T19:09:17.746Z,10.00
2023-06-01T19:11:00.890Z,7.80
2023-06-01T19:12:32.759Z,9.40
2023-06-01T19:14:04.559Z,9.10
2023-06-01T19:15:36.289Z,8.90
2023-06-01T19:17:08.187Z,7.50
2023-06-01T19:18:41.073Z,11.00
2023-06-01T19:20:38.422Z,10.60
2023-06-01T19:22:11.502Z,9.10
2023-06-01T19:24:11.981Z,8.40
2023-06-01T19:25:44.002Z,10.40
2023-06-01T19:27:17.114Z,9.50
2023-06-01T19:28:51.600Z,7.50
2023-06-01T19:30:23.383Z,9.90
2023-06-01T19:31:55.390Z,10.20
2023-06-01T19:33:27.296Z,10.00
2023-06-01T19:35:00.627Z,8.90
2023-06-01T19:36:44.427Z,11.20
2023-06-01T19:38:16.896Z,11.40
2023-06-01T19:39:48.720Z,11.90
2023-06-01T19:41:21.380Z,9.10
2023-06-01T19:42:54.680Z,9.80
2023-06-01T19:44:29.159Z,8.80
2023-06-01T19:46:20.584Z,8.90
2023-06-01T19:47:53.903Z,9.00
2023-06-01T19:49:26.039Z,9.60
2023-06-01T19:50:57.867Z,8.30
2023-06-01T19:52:43.040Z,8.10
2023-06-01T19:54:24.893Z,10.20
2023-06-01T19:55:58.930Z,7.60
2023-06-01T19:57:36.135Z,10.00
2023-06-01T19:59:12.612Z,8.90
2023-06-01T20:00:46.944Z,9.40
2023-06-01T20:02:50.942Z,11.00
2023-06-01T20:04:23.037Z,8.40
2023-06-01T20:05:54.921Z,10.80
2023-06-01T20:07:26.666Z,11.80
2023-06-01T20:09:20.073Z,8.70
2023-06-01T20:10:51.976Z,8.80
2023-06-01T20:12:25.534Z,9.20
2023-06-01T20:13:57.273Z,11.20
2023-06-01T20:15:38.708Z,11.50
2023-06-01T20:17:10.539Z,11.30
2023-06-01T20:18:42.634Z,9.50
2023-06-01T20:20:15.271Z,14.00
2023-06-01T20:21:53.243Z,9.10
2023-06-01T20:23:25.284Z,9.80